Terminal Aerodrome Forecast
Issued by NWS Bismarck, ND

Home | Current Version | Previous Version | Text Only | Print | Product List | Glossary Off
Versions: 1 2 3 4 5 6 7 8 9 10 11 12 13 14 15 16 17 18 19 20 21

000
FTUS43 KBIS 180500
TAFBIS
TAF
KBIS 180535Z 1806/1906 08008KT P6SM SCT250
     FM181700 16018G27KT P6SM SCT120=

USA.gov is the U.S. government's official web portal to all federal, state and local government web resources and services.